Mallet Town, Arkansas
Current Conditions -  °F | °C
As of 2:15 AM on Thursday 27 Nov 2014 (Local Time) from KCCA Reporting Station
Clear Clear  
Wind Chill: 32°   Ceiling: Unl
Heat Index: 37°   Visibility: 10mi
Dew Point: 27°   Wind: 7mph
Humidity: 65%   Direction: 330°NNW
Pressure: 30.37"   Gusts: 17mph
Location:  35.2739°N, 92.5381°W
Report Text: KCCA 270815Z AUTO 33006G15KT 10SM CLR 03/M03 A3037 RMK AO2
Loading
Personal Weather Stations






























Interactive Weather Map New forecast layout! Learn more

10-Day Weather Forecast

Advertisements
Track Severe Weather on mobile